createdAt,value
2019-03-24T00:02:03.939Z,19.10
2019-03-24T00:04:33.320Z,18.20
2019-03-24T00:07:02.760Z,16.93
2019-03-24T00:09:32.112Z,17.05
2019-03-24T00:12:01.443Z,16.87
2019-03-24T00:14:30.734Z,17.00
2019-03-24T00:17:00.030Z,15.83
2019-03-24T00:19:29.359Z,17.57
2019-03-24T00:21:58.659Z,18.92
2019-03-24T00:24:27.960Z,13.75
2019-03-24T00:26:57.345Z,15.18
2019-03-24T00:29:26.895Z,16.65
2019-03-24T00:31:56.321Z,14.50
2019-03-24T00:34:25.662Z,20.80
2019-03-24T00:36:54.989Z,15.40
2019-03-24T00:39:24.323Z,16.90
2019-03-24T00:41:53.721Z,18.75
2019-03-24T00:44:23.039Z,14.10
2019-03-24T00:46:52.396Z,16.73
2019-03-24T00:49:22.482Z,18.52
2019-03-24T00:51:51.815Z,16.75
2019-03-24T00:54:21.111Z,16.12
2019-03-24T00:56:50.453Z,15.55
2019-03-24T00:59:19.745Z,15.32
2019-03-24T01:01:49.049Z,15.20
2019-03-24T01:04:18.438Z,19.32
2019-03-24T01:06:47.719Z,15.45
2019-03-24T01:09:18.538Z,16.73
2019-03-24T01:11:47.900Z,18.25
2019-03-24T01:14:17.198Z,19.37
2019-03-24T01:16:46.573Z,17.95
2019-03-24T01:19:15.931Z,16.37
2019-03-24T01:21:45.344Z,17.85
2019-03-24T01:24:14.772Z,15.28
2019-03-24T01:26:44.053Z,14.98
2019-03-24T01:29:13.367Z,18.42
2019-03-24T01:31:42.911Z,15.70
2019-03-24T01:34:12.262Z,15.23
2019-03-24T01:36:41.562Z,16.85
2019-03-24T01:39:10.878Z,15.25
2019-03-24T01:41:40.198Z,18.82
2019-03-24T01:44:09.506Z,16.80
2019-03-24T01:46:38.797Z,18.80
2019-03-24T01:49:08.172Z,18.23
2019-03-24T01:51:37.491Z,17.95
2019-03-24T01:54:06.810Z,16.70
2019-03-24T01:56:36.424Z,16.52
2019-03-24T01:59:16.231Z,14.95
2019-03-24T02:01:50.074Z,19.00
2019-03-24T02:04:19.327Z,19.82
2019-03-24T02:06:48.619Z,18.40
2019-03-24T02:09:18.225Z,18.40
2019-03-24T02:11:47.531Z,18.42
2019-03-24T02:14:16.830Z,14.13
2019-03-24T02:16:46.184Z,15.78
2019-03-24T02:19:15.856Z,17.02
2019-03-24T02:21:45.223Z,19.75
2019-03-24T02:25:12.303Z,15.45
2019-03-24T02:27:41.656Z,13.83
2019-03-24T02:30:12.475Z,18.55
2019-03-24T02:32:41.864Z,13.90
2019-03-24T02:35:11.406Z,19.05
2019-03-24T02:37:40.741Z,19.57
2019-03-24T02:40:11.192Z,18.48
2019-03-24T02:42:40.793Z,16.40
2019-03-24T02:45:10.778Z,21.45
2019-03-24T02:47:40.206Z,16.93
2019-03-24T02:50:10.868Z,16.57
2019-03-24T02:52:40.204Z,19.27
2019-03-24T02:55:10.519Z,18.02
2019-03-24T02:57:39.876Z,17.82
2019-03-24T03:00:10.101Z,13.38
2019-03-24T03:05:27.662Z,18.55
2019-03-24T03:06:10.183Z,17.40
2019-03-24T03:08:00.074Z,19.30
2019-03-24T03:10:29.337Z,17.95
2019-03-24T03:12:58.639Z,17.60
2019-03-24T03:15:27.993Z,17.42
2019-03-24T03:17:57.300Z,18.80
2019-03-24T03:20:26.603Z,18.87
2019-03-24T03:22:58.877Z,18.02
2019-03-24T03:25:28.183Z,21.73
2019-03-24T03:27:57.475Z,20.57
2019-03-24T03:30:26.819Z,14.93
2019-03-24T03:32:56.158Z,20.10
2019-03-24T03:35:25.434Z,19.23
2019-03-24T03:37:54.784Z,19.92
2019-03-24T03:40:24.187Z,23.73
2019-03-24T03:42:53.485Z,22.45
2019-03-24T03:45:28.650Z,22.42
2019-03-24T03:47:58.266Z,17.15
2019-03-24T03:50:27.630Z,19.73
2019-03-24T03:52:57.082Z,19.17
2019-03-24T03:55:26.383Z,18.40
2019-03-24T03:57:55.681Z,18.32
2019-03-24T04:03:45.101Z,19.70
2019-03-24T04:06:14.385Z,19.48
2019-03-24T04:08:43.711Z,18.75
2019-03-24T04:11:13.059Z,17.48
2019-03-24T04:13:42.352Z,20.82
2019-03-24T04:16:11.651Z,19.05
2019-03-24T04:18:41.008Z,24.67
2019-03-24T04:22:18.742Z,21.27
2019-03-24T04:24:48.198Z,17.27
2019-03-24T04:27:17.510Z,21.20
2019-03-24T04:29:46.876Z,19.32
2019-03-24T04:32:16.263Z,17.95
2019-03-24T04:34:45.593Z,26.42
2019-03-24T04:37:14.932Z,19.73
2019-03-24T04:39:44.306Z,17.82
2019-03-24T04:42:13.641Z,23.12
2019-03-24T04:44:42.934Z,21.93
2019-03-24T04:47:16.586Z,21.15
2019-03-24T04:49:43.354Z,21.30
2019-03-24T04:52:12.665Z,16.95
2019-03-24T04:54:42.014Z,17.20
2019-03-24T04:57:11.353Z,18.25
2019-03-24T04:59:40.652Z,18.37
2019-03-24T05:02:09.998Z,15.32
2019-03-24T05:04:39.302Z,18.32
2019-03-24T05:07:10.290Z,18.10
2019-03-24T05:13:27.641Z,17.95
2019-03-24T05:15:56.945Z,20.50
2019-03-24T05:18:26.246Z,17.92
2019-03-24T05:20:55.601Z,17.37
2019-03-24T05:23:24.905Z,17.75
2019-03-24T05:25:54.211Z,23.00
2019-03-24T05:28:23.594Z,22.52
2019-03-24T05:30:52.862Z,19.25
2019-03-24T05:33:22.157Z,17.45
2019-03-24T05:35:51.530Z,18.92
2019-03-24T05:38:20.830Z,18.20
2019-03-24T05:40:50.123Z,18.75
2019-03-24T05:43:19.473Z,21.45
2019-03-24T05:45:48.773Z,20.60
2019-03-24T05:48:18.071Z,18.25
2019-03-24T05:50:47.422Z,17.40
2019-03-24T05:53:16.715Z,16.97
2019-03-24T05:55:46.012Z,18.50
2019-03-24T05:58:15.360Z,15.80
2019-03-24T06:00:44.654Z,15.43
2019-03-24T06:03:15.521Z,17.75
2019-03-24T06:05:44.908Z,16.87
2019-03-24T06:08:14.240Z,15.53
2019-03-24T06:10:46.165Z,18.73
2019-03-24T06:13:15.628Z,17.12
2019-03-24T06:15:44.878Z,20.12
2019-03-24T06:18:15.769Z,16.42
2019-03-24T06:20:45.267Z,17.00
2019-03-24T06:23:17.544Z,17.45
2019-03-24T06:25:46.845Z,16.80
2019-03-24T06:28:16.442Z,15.10
2019-03-24T06:30:48.910Z,20.30
2019-03-24T06:33:18.454Z,15.85
2019-03-24T06:35:47.807Z,14.80
2019-03-24T06:38:17.363Z,16.20
2019-03-24T06:41:02.924Z,15.88
2019-03-24T06:43:53.444Z,18.52
2019-03-24T06:46:22.979Z,15.63
2019-03-24T06:48:54.245Z,16.50
2019-03-24T06:51:25.984Z,17.45
2019-03-24T06:53:56.444Z,18.73
2019-03-24T06:56:25.769Z,16.73
2019-03-24T06:58:55.096Z,17.32
2019-03-24T07:01:24.677Z,17.10
2019-03-24T07:03:54.287Z,14.58
2019-03-24T07:06:23.999Z,17.40
2019-03-24T07:08:53.336Z,17.00
2019-03-24T07:11:22.637Z,16.48
2019-03-24T07:13:51.924Z,15.85
2019-03-24T07:16:21.518Z,19.35
2019-03-24T07:18:50.808Z,20.95
2019-03-24T07:21:20.112Z,20.45
2019-03-24T07:23:49.484Z,16.90
2019-03-24T07:26:18.767Z,15.23
2019-03-24T07:28:48.066Z,20.82
2019-03-24T07:31:17.644Z,20.88
2019-03-24T07:33:46.940Z,21.73
2019-03-24T07:36:16.229Z,16.55
2019-03-24T07:38:45.568Z,26.60
2019-03-24T07:41:14.875Z,19.55
2019-03-24T07:43:44.418Z,17.52
2019-03-24T07:46:13.754Z,20.23
2019-03-24T07:48:43.066Z,21.33
2019-03-24T07:51:12.342Z,27.60
2019-03-24T07:53:41.674Z,22.45
2019-03-24T07:56:10.963Z,21.90
2019-03-24T07:58:40.536Z,25.30
2019-03-24T08:01:09.904Z,29.55
2019-03-24T08:03:39.207Z,26.93
2019-03-24T08:06:08.500Z,22.20
2019-03-24T08:08:44.149Z,21.55
2019-03-24T08:11:09.188Z,20.02
2019-03-24T08:13:38.786Z,18.23
2019-03-24T08:16:08.116Z,23.55
2019-03-24T08:18:37.706Z,23.05
2019-03-24T08:21:07.006Z,19.17
2019-03-24T08:23:36.334Z,24.45
2019-03-24T08:26:05.897Z,25.88
2019-03-24T08:28:35.502Z,23.02
2019-03-24T08:31:04.839Z,22.77
2019-03-24T08:33:34.124Z,24.40
2019-03-24T08:36:03.417Z,27.77
2019-03-24T08:38:32.755Z,26.68
2019-03-24T08:41:02.316Z,24.63
2019-03-24T08:43:31.624Z,34.18
2019-03-24T08:46:00.951Z,30.70
2019-03-24T08:48:40.174Z,20.77
2019-03-24T08:51:01.243Z,23.57
2019-03-24T08:53:30.592Z,21.17
2019-03-24T08:55:59.884Z,20.20
2019-03-24T08:58:29.189Z,23.52
2019-03-24T09:00:58.532Z,20.60
2019-03-24T09:03:27.814Z,21.97
2019-03-24T09:05:57.114Z,21.93
2019-03-24T09:08:26.455Z,25.23
2019-03-24T09:10:55.766Z,17.70
2019-03-24T09:13:25.058Z,19.15
2019-03-24T09:15:54.388Z,21.60
2019-03-24T09:18:23.694Z,27.00
2019-03-24T09:20:53.271Z,26.40
2019-03-24T09:23:22.867Z,23.65
2019-03-24T09:25:52.183Z,21.48
2019-03-24T09:28:21.487Z,21.05
2019-03-24T09:30:50.835Z,22.20
2019-03-24T09:33:20.139Z,21.12
2019-03-24T09:35:49.480Z,19.70
2019-03-24T09:38:18.842Z,21.45
2019-03-24T09:40:48.131Z,19.48
2019-03-24T09:43:17.428Z,17.62
2019-03-24T09:45:48.451Z,19.87
2019-03-24T09:48:18.031Z,20.10
2019-03-24T09:50:47.334Z,22.48
2019-03-24T09:53:16.944Z,17.20
2019-03-24T09:55:46.250Z,18.45
2019-03-24T09:58:15.546Z,14.18
2019-03-24T10:00:44.983Z,16.15
2019-03-24T10:03:14.276Z,17.00
2019-03-24T10:05:43.580Z,16.02
2019-03-24T10:08:12.924Z,22.00
2019-03-24T10:10:42.224Z,16.80
2019-03-24T10:13:11.527Z,14.28
2019-03-24T10:15:40.862Z,18.17
2019-03-24T10:18:10.161Z,17.92
2019-03-24T10:20:39.462Z,21.77
2019-03-24T10:23:08.810Z,18.05
2019-03-24T10:25:38.108Z,18.00
2019-03-24T10:28:07.403Z,13.35
2019-03-24T10:30:36.745Z,11.95
2019-03-24T10:33:06.050Z,18.10
2019-03-24T10:35:35.351Z,19.05
2019-03-24T10:38:04.769Z,17.00
2019-03-24T10:40:34.070Z,14.10
2019-03-24T10:43:03.382Z,10.80
2019-03-24T10:45:32.737Z,12.63
2019-03-24T10:48:02.032Z,16.52
2019-03-24T10:50:31.342Z,15.63
2019-03-24T10:53:00.953Z,17.05
2019-03-24T10:55:30.502Z,22.05
2019-03-24T10:57:59.801Z,14.45
2019-03-24T11:00:43.313Z,13.60
2019-03-24T11:03:13.004Z,14.70
2019-03-24T11:05:42.619Z,18.75
2019-03-24T11:08:11.980Z,12.37
2019-03-24T11:10:41.284Z,15.05
2019-03-24T11:13:10.583Z,14.68
2019-03-24T11:15:39.928Z,11.78
2019-03-24T11:18:09.233Z,18.25
2019-03-24T11:20:38.529Z,15.98
2019-03-24T11:23:07.873Z,13.20
2019-03-24T11:25:37.181Z,12.98
2019-03-24T11:28:06.473Z,13.98
2019-03-24T11:30:35.834Z,12.15
2019-03-24T11:33:05.207Z,21.27
2019-03-24T11:35:34.502Z,17.65
2019-03-24T11:38:03.917Z,13.22
2019-03-24T11:40:33.215Z,13.32
2019-03-24T11:43:02.570Z,14.05
2019-03-24T11:45:31.947Z,11.83
2019-03-24T11:48:01.248Z,11.90
2019-03-24T11:50:30.559Z,14.30
2019-03-24T11:52:59.913Z,13.28
2019-03-24T11:55:29.209Z,10.60
2019-03-24T11:58:05.783Z,14.53
2019-03-24T12:00:35.820Z,12.05
2019-03-24T12:03:05.220Z,9.40
2019-03-24T12:05:34.474Z,8.55
2019-03-24T12:08:04.767Z,9.53
2019-03-24T12:10:34.121Z,9.68
2019-03-24T12:13:22.819Z,9.25
2019-03-24T12:15:52.163Z,14.38
2019-03-24T12:18:21.464Z,11.30
2019-03-24T12:20:50.810Z,8.80
2019-03-24T12:23:21.089Z,8.58
2019-03-24T12:25:50.579Z,10.32
2019-03-24T12:28:19.927Z,11.75
2019-03-24T12:30:49.238Z,8.45
2019-03-24T12:33:18.537Z,10.35
2019-03-24T12:35:48.139Z,11.03
2019-03-24T12:38:17.444Z,10.98
2019-03-24T12:40:46.752Z,10.93
2019-03-24T12:43:19.747Z,8.60
2019-03-24T12:45:47.146Z,9.00
2019-03-24T12:48:16.454Z,8.58
2019-03-24T12:50:45.865Z,8.13
2019-03-24T12:53:15.165Z,10.28
2019-03-24T12:55:44.463Z,12.88
2019-03-24T12:58:13.812Z,7.28
2019-03-24T13:00:43.800Z,9.50
2019-03-24T13:03:13.163Z,6.40
2019-03-24T13:05:42.669Z,9.35
2019-03-24T13:08:16.760Z,9.18
2019-03-24T13:10:48.898Z,9.13
2019-03-24T13:13:18.295Z,12.43
2019-03-24T13:15:47.635Z,11.75
2019-03-24T13:18:17.720Z,8.08
2019-03-24T13:20:47.189Z,7.55
2019-03-24T13:23:16.494Z,10.90
2019-03-24T13:25:50.501Z,9.20
2019-03-24T13:28:19.596Z,10.25
2019-03-24T13:30:48.894Z,8.98
2019-03-24T13:33:18.261Z,7.37
2019-03-24T13:35:49.464Z,9.23
2019-03-24T13:38:18.779Z,12.40
2019-03-24T13:40:48.118Z,11.68
2019-03-24T13:43:17.415Z,8.08
2019-03-24T13:45:49.434Z,11.45
2019-03-24T13:48:18.785Z,9.95
2019-03-24T13:50:48.079Z,11.88
2019-03-24T13:53:17.386Z,11.73
2019-03-24T13:55:46.744Z,11.93
2019-03-24T13:58:16.025Z,6.58
2019-03-24T14:00:45.328Z,8.93
2019-03-24T14:03:14.702Z,9.75
2019-03-24T14:05:43.990Z,9.83
2019-03-24T14:08:13.283Z,9.05
2019-03-24T14:10:42.632Z,8.88
2019-03-24T14:13:11.936Z,9.90
2019-03-24T14:15:41.229Z,10.10
2019-03-24T14:18:10.594Z,6.90
2019-03-24T14:20:43.699Z,10.28
2019-03-24T14:23:11.479Z,8.45
2019-03-24T14:25:40.811Z,8.05
2019-03-24T14:28:10.116Z,10.50
2019-03-24T14:30:48.621Z,11.20
2019-03-24T14:33:17.994Z,6.20
2019-03-24T14:35:47.354Z,8.63
2019-03-24T14:38:16.730Z,10.58
2019-03-24T14:40:46.092Z,7.50
2019-03-24T14:43:15.766Z,7.83
2019-03-24T14:45:45.137Z,7.12
2019-03-24T14:48:14.504Z,5.70
2019-03-24T14:50:54.011Z,6.47
2019-03-24T14:53:15.311Z,6.60
2019-03-24T14:55:44.839Z,5.45
2019-03-24T14:58:14.147Z,10.75
2019-03-24T15:00:45.048Z,8.45
2019-03-24T15:03:14.343Z,6.25
2019-03-24T15:05:43.715Z,10.10
2019-03-24T15:08:13.134Z,7.35
2019-03-24T15:10:42.718Z,6.80
2019-03-24T15:13:13.656Z,7.50
2019-03-24T15:15:42.990Z,7.05
2019-03-24T15:18:12.290Z,9.75
2019-03-24T15:20:41.587Z,8.53
2019-03-24T15:23:10.943Z,11.43
2019-03-24T15:25:40.252Z,12.58
2019-03-24T15:28:09.869Z,10.38
2019-03-24T15:30:39.257Z,10.30
2019-03-24T15:33:08.533Z,9.98
2019-03-24T15:35:37.833Z,12.95
2019-03-24T15:38:08.941Z,11.83
2019-03-24T15:40:38.214Z,10.58
2019-03-24T15:43:07.522Z,9.45
2019-03-24T15:45:36.866Z,10.10
2019-03-24T15:48:06.231Z,9.03
2019-03-24T15:50:35.530Z,12.07
2019-03-24T15:53:05.238Z,9.65
2019-03-24T15:55:34.529Z,12.23
2019-03-24T15:58:03.836Z,11.38
2019-03-24T16:00:45.207Z,8.60
2019-03-24T16:03:14.506Z,7.60
2019-03-24T16:05:43.903Z,8.50
2019-03-24T16:08:13.311Z,10.65
2019-03-24T16:10:42.681Z,10.43
2019-03-24T16:13:11.964Z,8.85
2019-03-24T16:15:41.305Z,11.68
2019-03-24T16:18:10.602Z,10.88
2019-03-24T16:20:39.905Z,12.80
2019-03-24T16:23:09.250Z,9.33
2019-03-24T16:25:38.541Z,8.60
2019-03-24T16:28:07.845Z,10.32
2019-03-24T16:30:37.212Z,10.05
2019-03-24T16:33:06.501Z,9.28
2019-03-24T16:35:35.795Z,7.70
2019-03-24T16:38:05.201Z,9.88
2019-03-24T16:40:34.497Z,10.10
2019-03-24T16:43:04.134Z,10.63
2019-03-24T16:45:33.469Z,12.18
2019-03-24T16:48:02.765Z,8.23
2019-03-24T16:50:32.078Z,9.40
2019-03-24T16:53:01.436Z,12.05
2019-03-24T16:55:33.397Z,9.93
2019-03-24T16:58:05.160Z,9.25
2019-03-24T17:00:36.321Z,13.45
2019-03-24T17:03:06.088Z,10.32
2019-03-24T17:05:35.810Z,9.25
2019-03-24T17:08:05.320Z,9.45
2019-03-24T17:10:34.614Z,12.85
2019-03-24T17:13:03.977Z,7.87
2019-03-24T17:15:33.319Z,10.45
2019-03-24T17:18:02.831Z,18.07
2019-03-24T17:20:32.136Z,8.70
2019-03-24T17:23:01.482Z,14.30
2019-03-24T17:25:30.773Z,11.00
2019-03-24T17:28:00.066Z,9.73
2019-03-24T17:30:29.410Z,13.25
2019-03-24T17:32:58.702Z,12.23
2019-03-24T17:35:28.001Z,11.03
2019-03-24T17:37:57.359Z,10.35
2019-03-24T17:40:26.944Z,8.23
2019-03-24T17:42:56.235Z,10.82
2019-03-24T17:45:25.586Z,10.25
2019-03-24T17:47:54.878Z,12.07
2019-03-24T17:50:24.248Z,10.03
2019-03-24T17:52:53.671Z,11.00
2019-03-24T17:55:27.533Z,13.45
2019-03-24T17:57:53.987Z,12.90
2019-03-24T18:00:36.901Z,12.75
2019-03-24T18:03:09.249Z,9.93
2019-03-24T18:05:38.630Z,10.28
2019-03-24T18:08:08.029Z,8.50
2019-03-24T18:10:37.332Z,10.15
2019-03-24T18:13:06.990Z,8.53
2019-03-24T18:15:36.341Z,15.10
2019-03-24T18:18:05.698Z,12.50
2019-03-24T18:20:37.065Z,12.85
2019-03-24T18:23:06.413Z,10.93
2019-03-24T18:25:38.722Z,11.28
2019-03-24T18:28:08.077Z,12.73
2019-03-24T18:30:37.495Z,12.25
2019-03-24T18:33:06.787Z,9.45
2019-03-24T18:35:36.078Z,9.35
2019-03-24T18:38:05.588Z,10.38
2019-03-24T18:40:34.869Z,7.75
2019-03-24T18:43:04.364Z,10.82
2019-03-24T18:45:34.362Z,10.45
2019-03-24T18:48:04.463Z,9.35
2019-03-24T18:50:33.790Z,8.70
2019-03-24T18:53:03.386Z,9.75
2019-03-24T18:55:32.699Z,10.82
2019-03-24T18:58:01.994Z,13.40
2019-03-24T19:00:31.350Z,11.08
2019-03-24T19:03:00.646Z,12.53
2019-03-24T19:05:29.931Z,10.70
2019-03-24T19:07:59.266Z,16.10
2019-03-24T19:10:28.868Z,11.63
2019-03-24T19:12:58.484Z,9.83
2019-03-24T19:15:28.066Z,12.58
2019-03-24T19:17:57.353Z,11.48
2019-03-24T19:20:26.707Z,8.83
2019-03-24T19:22:56.241Z,13.10
2019-03-24T19:25:25.543Z,15.18
2019-03-24T19:27:54.900Z,12.37
2019-03-24T19:30:36.756Z,8.68
2019-03-24T19:33:06.696Z,18.65
2019-03-24T19:35:35.986Z,14.43
2019-03-24T19:38:05.759Z,9.10
2019-03-24T19:40:35.114Z,13.30
2019-03-24T19:43:04.724Z,8.65
2019-03-24T19:45:34.057Z,10.53
2019-03-24T19:48:03.628Z,10.15
2019-03-24T19:50:32.992Z,9.68
2019-03-24T19:53:02.350Z,12.35
2019-03-24T19:55:31.638Z,11.18
2019-03-24T19:58:00.923Z,10.78
2019-03-24T20:00:30.487Z,13.08
2019-03-24T20:02:59.777Z,11.10
2019-03-24T20:05:29.063Z,9.08
2019-03-24T20:07:58.394Z,12.70
2019-03-24T20:10:27.813Z,8.85
2019-03-24T20:12:57.343Z,9.10
2019-03-24T20:15:26.687Z,11.12
2019-03-24T20:17:55.978Z,10.18
2019-03-24T20:20:25.264Z,11.75
2019-03-24T20:22:56.794Z,12.70
2019-03-24T20:25:25.622Z,10.68
2019-03-24T20:27:54.913Z,13.55
2019-03-24T20:30:24.249Z,12.40
2019-03-24T20:32:53.542Z,12.28
2019-03-24T20:35:22.834Z,10.03
2019-03-24T20:37:52.175Z,14.25
2019-03-24T20:40:21.494Z,10.00
2019-03-24T20:42:50.752Z,9.68
2019-03-24T20:45:20.162Z,14.30
2019-03-24T20:47:49.461Z,14.00
2019-03-24T20:50:19.192Z,11.80
2019-03-24T20:52:48.533Z,11.28
2019-03-24T20:55:17.818Z,10.50
2019-03-24T20:57:47.105Z,15.18
2019-03-24T21:00:20.015Z,13.68
2019-03-24T21:02:52.508Z,14.20
2019-03-24T21:05:21.802Z,16.42
2019-03-24T21:07:51.146Z,13.22
2019-03-24T21:10:20.769Z,14.40
2019-03-24T21:12:50.059Z,15.35
2019-03-24T21:15:19.410Z,12.98
2019-03-24T21:17:48.702Z,16.07
2019-03-24T21:20:17.993Z,11.60
2019-03-24T21:22:47.349Z,17.55
2019-03-24T21:25:16.661Z,14.80
2019-03-24T21:27:45.949Z,13.38
2019-03-24T21:30:16.388Z,18.92
2019-03-24T21:32:46.004Z,12.53
2019-03-24T21:35:15.361Z,14.95
2019-03-24T21:37:44.712Z,16.20
2019-03-24T21:40:14.076Z,11.53
2019-03-24T21:42:43.376Z,13.45
2019-03-24T21:45:13.221Z,18.62
2019-03-24T21:47:42.515Z,14.83
2019-03-24T21:50:13.381Z,14.25
2019-03-24T21:52:42.708Z,14.95
2019-03-24T21:55:12.174Z,13.22
2019-03-24T21:57:41.462Z,15.78
2019-03-24T22:00:11.504Z,13.95
2019-03-24T22:02:40.957Z,13.65
2019-03-24T22:05:10.720Z,14.70
2019-03-24T22:07:40.055Z,12.50
2019-03-24T22:10:09.412Z,12.78
2019-03-24T22:12:38.705Z,16.10
2019-03-24T22:15:11.136Z,13.88
2019-03-24T22:17:40.425Z,10.25
2019-03-24T22:20:09.858Z,16.25
2019-03-24T22:22:39.213Z,17.20
2019-03-24T22:25:10.180Z,15.08
2019-03-24T22:27:39.473Z,12.60
2019-03-24T22:30:09.632Z,16.90
2019-03-24T22:32:38.927Z,11.83
2019-03-24T22:35:08.361Z,12.95
2019-03-24T22:37:37.693Z,13.10
2019-03-24T22:40:09.400Z,14.63
2019-03-24T22:42:38.690Z,12.47
2019-03-24T22:45:08.743Z,14.63
2019-03-24T22:47:38.030Z,14.53
2019-03-24T22:50:09.541Z,12.47
2019-03-24T22:52:38.894Z,13.00
2019-03-24T22:55:09.409Z,15.30
2019-03-24T22:57:38.768Z,13.93
2019-03-24T23:00:15.809Z,11.30
2019-03-24T23:02:45.098Z,12.95
2019-03-24T23:05:14.403Z,15.58
2019-03-24T23:07:43.758Z,12.85
2019-03-24T23:10:13.108Z,16.32
2019-03-24T23:12:42.402Z,12.10
2019-03-24T23:15:12.090Z,13.28
2019-03-24T23:17:41.382Z,12.65
2019-03-24T23:20:11.538Z,13.53
2019-03-24T23:22:40.886Z,10.53
2019-03-24T23:25:11.134Z,13.35
2019-03-24T23:27:40.425Z,12.70
2019-03-24T23:30:11.375Z,12.18
2019-03-24T23:32:40.668Z,11.38
2019-03-24T23:35:11.201Z,13.78
2019-03-24T23:37:40.532Z,12.07
2019-03-24T23:40:10.265Z,12.70
2019-03-24T23:42:39.587Z,11.93
2019-03-24T23:45:09.943Z,11.75
2019-03-24T23:47:39.232Z,10.35
2019-03-24T23:50:09.137Z,14.95
2019-03-24T23:52:38.489Z,14.05
2019-03-24T23:55:08.193Z,11.93
2019-03-24T23:57:37.489Z,11.12
